createdAt,value
2023-03-06T00:00:34.683Z,96754.27
2023-03-06T00:03:52.138Z,96755.48
2023-03-06T00:06:55.619Z,96758.92
2023-03-06T00:09:58.575Z,96760.59
2023-03-06T00:13:05.666Z,96761.95
2023-03-06T00:16:09.065Z,96762.67
2023-03-06T00:19:12.155Z,96760.63
2023-03-06T00:22:16.048Z,96759.58
2023-03-06T00:25:21.605Z,96758.55
2023-03-06T00:28:24.651Z,96755.23
2023-03-06T00:31:28.298Z,96751.19
2023-03-06T00:34:31.418Z,96751.00
2023-03-06T00:37:34.460Z,96746.62
2023-03-06T00:40:37.494Z,96748.44
2023-03-06T00:43:40.630Z,96749.06
2023-03-06T00:46:43.784Z,96749.39
2023-03-06T00:49:46.923Z,96748.27
2023-03-06T00:52:49.885Z,96746.72
2023-03-06T00:55:53.188Z,96743.08
2023-03-06T00:58:56.190Z,96740.61
2023-03-06T01:02:00.152Z,96738.00
2023-03-06T01:05:03.440Z,96733.34
2023-03-06T01:08:06.873Z,96732.89
2023-03-06T01:11:09.799Z,96734.32
2023-03-06T01:14:13.206Z,96728.31
2023-03-06T01:17:18.031Z,96727.73
2023-03-06T01:20:21.440Z,96726.42
2023-03-06T01:23:24.512Z,96723.81
2023-03-06T01:26:27.794Z,96720.45
2023-03-06T01:29:30.999Z,96713.56
2023-03-06T01:32:34.299Z,96705.77
2023-03-06T01:35:41.252Z,96699.96
2023-03-06T01:38:44.690Z,96692.06
2023-03-06T01:41:47.621Z,96693.49
2023-03-06T01:45:20.170Z,96687.96
2023-03-06T01:48:24.880Z,96689.88
2023-03-06T01:51:33.563Z,96694.98
2023-03-06T01:54:42.204Z,96694.41
2023-03-06T01:57:48.169Z,96693.42
2023-03-06T02:00:51.209Z,96695.17
2023-03-06T02:03:55.701Z,96695.66
2023-03-06T02:07:00.358Z,96693.00
2023-03-06T02:10:04.624Z,96693.29
2023-03-06T02:13:07.636Z,96693.68
2023-03-06T02:16:11.535Z,96692.58
2023-03-06T02:19:24.804Z,96687.53
2023-03-06T02:22:37.985Z,96685.33
2023-03-06T02:25:48.262Z,96683.24
2023-03-06T02:28:51.310Z,96678.59
2023-03-06T02:31:54.560Z,96677.64
2023-03-06T02:34:58.222Z,96677.54
2023-03-06T02:38:16.009Z,96674.43
2023-03-06T02:41:19.123Z,96674.65
2023-03-06T02:44:24.391Z,96672.36
2023-03-06T02:47:27.659Z,96670.27
2023-03-06T02:50:31.964Z,96670.83
2023-03-06T02:53:34.945Z,96666.29
2023-03-06T02:56:38.799Z,96664.69
2023-03-06T02:59:41.917Z,96663.36
2023-03-06T03:02:45.793Z,96661.63
2023-03-06T03:05:48.934Z,96654.06
2023-03-06T03:08:51.824Z,96654.67
2023-03-06T03:11:54.800Z,96653.77
2023-03-06T03:14:57.891Z,96651.88
2023-03-06T03:18:01.089Z,96651.45
2023-03-06T03:21:08.960Z,96647.16
2023-03-06T03:24:11.955Z,96649.48
2023-03-06T03:27:15.253Z,96649.04
2023-03-06T03:30:19.471Z,96647.55
2023-03-06T03:33:22.602Z,96649.45
2023-03-06T03:36:27.672Z,96645.39
2023-03-06T03:39:30.944Z,96645.14
2023-03-06T03:42:34.641Z,96644.13
2023-03-06T03:45:37.614Z,96647.39
2023-03-06T03:48:40.772Z,96646.63
2023-03-06T03:51:44.200Z,96645.64
2023-03-06T03:54:47.158Z,96642.83
2023-03-06T03:57:50.372Z,96645.76
2023-03-06T04:00:53.546Z,96647.42
2023-03-06T04:03:56.594Z,96642.80
2023-03-06T04:07:00.711Z,96643.52
2023-03-06T04:10:04.308Z,96645.17
2023-03-06T04:13:09.965Z,96638.36
2023-03-06T04:16:13.251Z,96639.11
2023-03-06T04:19:16.910Z,96637.57
2023-03-06T04:22:20.009Z,96638.70
2023-03-06T04:25:22.955Z,96636.81
2023-03-06T04:28:26.107Z,96638.09
2023-03-06T04:31:29.269Z,96633.20
2023-03-06T04:34:32.277Z,96625.80
2023-03-06T04:37:35.355Z,96614.09
2023-03-06T04:40:38.566Z,96597.73
2023-03-06T04:43:41.746Z,96592.29
2023-03-06T04:46:45.434Z,96594.27
2023-03-06T04:49:48.651Z,96589.55
2023-03-06T04:52:52.036Z,96588.45
2023-03-06T04:55:55.088Z,96588.46
2023-03-06T04:58:58.347Z,96599.88
2023-03-06T05:02:01.490Z,96614.56
2023-03-06T05:05:05.613Z,96616.55
2023-03-06T05:08:13.063Z,96615.05
2023-03-06T05:11:16.308Z,96617.50
2023-03-06T05:14:19.480Z,96617.13
2023-03-06T05:17:22.702Z,96615.71
2023-03-06T05:20:26.402Z,96615.12
2023-03-06T05:23:33.462Z,96614.42
2023-03-06T05:27:00.104Z,96615.41
2023-03-06T05:30:26.286Z,96615.54
2023-03-06T05:34:09.716Z,96609.05
2023-03-06T05:37:33.268Z,96607.48
2023-03-06T05:40:40.604Z,96602.00
2023-03-06T05:43:45.360Z,96601.70
2023-03-06T05:47:09.683Z,96605.33
2023-03-06T05:50:32.748Z,96605.36
2023-03-06T05:53:35.817Z,96602.27
2023-03-06T05:56:41.316Z,96602.30
2023-03-06T05:59:46.468Z,96603.48
2023-03-06T06:02:50.339Z,96602.36
2023-03-06T06:05:53.773Z,96602.24
2023-03-06T06:08:57.375Z,96599.46
2023-03-06T06:12:03.888Z,96598.23
2023-03-06T06:15:08.289Z,96600.44
2023-03-06T06:18:11.890Z,96601.73
2023-03-06T06:21:15.886Z,96608.00
2023-03-06T06:24:22.114Z,96601.09
2023-03-06T06:27:25.892Z,96601.21
2023-03-06T06:30:29.608Z,96595.00
2023-03-06T06:33:33.188Z,96602.70
2023-03-06T06:36:53.922Z,96602.95
2023-03-06T06:39:58.068Z,96610.60
2023-03-06T06:43:03.031Z,96615.20
2023-03-06T06:46:38.863Z,96616.17
2023-03-06T06:49:31.610Z,96618.90
2023-03-06T06:52:35.725Z,96618.59
2023-03-06T06:55:39.715Z,96621.58
2023-03-06T06:58:42.873Z,96622.98
2023-03-06T07:01:46.953Z,96621.58
2023-03-06T07:05:03.142Z,96620.84
2023-03-06T07:08:07.787Z,96619.20
2023-03-06T07:11:16.202Z,96616.48
2023-03-06T07:14:19.414Z,96614.41
2023-03-06T07:17:22.532Z,96617.50
2023-03-06T07:20:26.428Z,96612.86
2023-03-06T07:23:30.382Z,96606.39
2023-03-06T07:26:35.588Z,96605.77
2023-03-06T07:29:39.390Z,96606.33
2023-03-06T07:33:10.435Z,96607.39
2023-03-06T07:41:31.992Z,96615.68
2023-03-06T07:45:57.747Z,96619.08
2023-03-06T07:50:21.850Z,96619.42
2023-03-06T07:54:29.330Z,96620.78
2023-03-06T07:58:57.160Z,96620.35
2023-03-06T08:03:40.452Z,96620.00
2023-03-06T08:08:19.220Z,96621.67
2023-03-06T08:13:02.930Z,96625.14
2023-03-06T08:17:24.911Z,96625.70
2023-03-06T08:21:44.821Z,96622.66
2023-03-06T08:26:28.841Z,96618.11
2023-03-06T08:31:12.770Z,96614.27
2023-03-06T08:35:37.486Z,96612.03
2023-03-06T08:39:49.453Z,96610.46
2023-03-06T08:44:33.548Z,96609.45
2023-03-06T08:48:57.412Z,96609.77
2023-03-06T08:53:17.034Z,96610.67
2023-03-06T08:57:30.431Z,96608.36
2023-03-06T09:02:14.206Z,96612.00
2023-03-06T09:06:55.514Z,96609.07
2023-03-06T09:11:57.394Z,96606.85
2023-03-06T09:16:21.874Z,96608.10
2023-03-06T09:20:38.225Z,96607.80
2023-03-06T09:24:41.095Z,96602.16
2023-03-06T09:29:03.994Z,96599.33
2023-03-06T09:33:28.396Z,96596.84
2023-03-06T09:37:38.987Z,96592.82
2023-03-06T09:42:07.400Z,96588.12
2023-03-06T09:46:29.752Z,96587.73
2023-03-06T09:51:15.357Z,96582.45
2023-03-06T09:55:27.198Z,96577.51
2023-03-06T10:00:04.193Z,96573.77
2023-03-06T10:04:38.815Z,96578.20
2023-03-06T10:09:17.774Z,96566.70
2023-03-06T10:13:56.349Z,96559.27
2023-03-06T10:18:26.811Z,96552.77
2023-03-06T10:23:00.560Z,96548.20
2023-03-06T10:27:12.262Z,96547.77
2023-03-06T10:31:16.302Z,96541.48
2023-03-06T10:36:07.542Z,96538.90
2023-03-06T10:40:29.369Z,96527.98
2023-03-06T10:45:01.189Z,96521.30
2023-03-06T10:49:25.168Z,96521.81
2023-03-06T10:53:39.783Z,96517.25
2023-03-06T10:57:58.682Z,96509.36
2023-03-06T11:02:24.687Z,96503.16
2023-03-06T11:06:33.240Z,96507.20
2023-03-06T11:10:57.644Z,96500.95
2023-03-06T11:15:16.466Z,96500.59
2023-03-06T11:19:23.962Z,96491.67
2023-03-06T11:23:42.904Z,96487.83
2023-03-06T11:28:36.911Z,96485.90
2023-03-06T11:33:31.154Z,96482.01
2023-03-06T11:37:59.414Z,96474.55
2023-03-06T11:43:55.209Z,96471.01
2023-03-06T11:48:04.612Z,96466.59
2023-03-06T11:52:24.657Z,96461.33
2023-03-06T11:57:11.946Z,96453.92
2023-03-06T12:01:58.349Z,96452.55
2023-03-06T12:06:28.185Z,96454.80
2023-03-06T12:15:49.973Z,96445.33
2023-03-06T12:21:01.339Z,96453.90
2023-03-06T12:25:47.931Z,96449.25
2023-03-06T12:30:03.827Z,96444.75
2023-03-06T12:35:05.979Z,96447.85
2023-03-06T12:39:42.971Z,96452.11
2023-03-06T12:44:33.009Z,96447.39
2023-03-06T12:48:58.928Z,96454.88
2023-03-06T12:53:42.578Z,96452.23
2023-03-06T12:58:08.178Z,96449.88
2023-03-06T13:02:54.742Z,96444.75
2023-03-06T13:07:59.395Z,96438.42
2023-03-06T13:12:25.305Z,96437.48
2023-03-06T13:17:04.310Z,96432.16
2023-03-06T13:21:27.021Z,96425.96
2023-03-06T13:25:58.217Z,96420.20
2023-03-06T13:30:16.591Z,96416.42
2023-03-06T13:34:45.188Z,96406.52
2023-03-06T13:39:18.405Z,96409.23
2023-03-06T13:43:31.379Z,96405.83
2023-03-06T13:48:33.719Z,96401.00
2023-03-06T13:53:03.433Z,96397.67
2023-03-06T13:57:36.678Z,96395.73
2023-03-06T14:02:27.123Z,96403.48
2023-03-06T14:07:05.629Z,96393.30
2023-03-06T14:11:47.533Z,96387.88
2023-03-06T14:16:32.694Z,96376.20
2023-03-06T14:20:55.388Z,96375.71
2023-03-06T14:25:39.660Z,96369.44
2023-03-06T14:29:46.282Z,96363.95
2023-03-06T14:33:59.052Z,96362.96
2023-03-06T14:38:25.042Z,96363.81
2023-03-06T14:42:52.724Z,96370.84
2023-03-06T14:47:24.101Z,96376.34
2023-03-06T14:51:28.103Z,96376.84
2023-03-06T14:56:12.128Z,96381.19
2023-03-06T15:00:31.941Z,96381.21
2023-03-06T15:04:59.067Z,96383.11
2023-03-06T15:09:36.637Z,96382.83
2023-03-06T15:14:23.359Z,96384.09
2023-03-06T15:18:53.817Z,96388.10
2023-03-06T15:23:38.273Z,96404.95
2023-03-06T15:28:07.490Z,96418.80
2023-03-06T15:32:53.390Z,96416.20
2023-03-06T15:37:21.230Z,96412.52
2023-03-06T15:42:08.524Z,96418.52
2023-03-06T15:46:39.377Z,96418.06
2023-03-06T15:51:18.797Z,96421.54
2023-03-06T15:56:02.889Z,96417.39
2023-03-06T16:00:26.609Z,96418.54
2023-03-06T16:04:51.109Z,96412.55
2023-03-06T16:09:34.919Z,96404.64
2023-03-06T16:14:09.803Z,96398.95
2023-03-06T16:18:35.471Z,96401.49
2023-03-06T16:23:03.011Z,96396.65
2023-03-06T16:27:18.583Z,96391.98
2023-03-06T16:32:02.895Z,96388.30
2023-03-06T16:36:42.788Z,96387.06
2023-03-06T16:41:21.525Z,96383.48
2023-03-06T16:45:45.475Z,96379.73
2023-03-06T16:50:05.843Z,96380.89
2023-03-06T16:54:50.382Z,96382.60
2023-03-06T16:59:06.961Z,96387.11
2023-03-06T17:03:15.431Z,96388.36
2023-03-06T17:07:48.607Z,96391.38
2023-03-06T17:12:32.963Z,96398.00
2023-03-06T17:17:06.471Z,96398.94
2023-03-06T17:21:46.374Z,96396.39
2023-03-06T17:26:14.823Z,96399.81
2023-03-06T17:30:26.398Z,96397.35
2023-03-06T17:35:10.732Z,96402.67
2023-03-06T17:39:35.940Z,96400.23
2023-03-06T17:44:23.185Z,96397.92
2023-03-06T17:49:07.047Z,96397.89
2023-03-06T17:53:22.381Z,96399.11
2023-03-06T17:57:51.943Z,96396.42
2023-03-06T18:02:14.089Z,96394.94
2023-03-06T18:06:40.564Z,96389.23
2023-03-06T18:10:47.099Z,96395.65
2023-03-06T18:15:17.904Z,96394.39
2023-03-06T18:19:32.461Z,96393.50
2023-03-06T18:23:44.805Z,96391.84
2023-03-06T18:28:10.554Z,96388.48
2023-03-06T18:32:38.002Z,96396.41
2023-03-06T18:36:53.345Z,96396.45
2023-03-06T18:41:27.863Z,96391.58
2023-03-06T18:45:32.569Z,96392.02
2023-03-06T18:49:48.964Z,96390.50
2023-03-06T18:54:00.350Z,96394.14
2023-03-06T18:58:08.743Z,96390.31
2023-03-06T19:02:14.240Z,96390.61
2023-03-06T19:06:54.867Z,96387.29
2023-03-06T19:11:08.403Z,96391.02
2023-03-06T19:15:15.822Z,96390.23
2023-03-06T19:19:40.058Z,96389.12
2023-03-06T19:24:19.512Z,96390.98
2023-03-06T19:29:03.357Z,96395.65
2023-03-06T19:33:47.684Z,96394.23
2023-03-06T19:38:13.451Z,96393.33
2023-03-06T19:44:11.660Z,96392.92
2023-03-06T19:48:38.525Z,96393.92
2023-03-06T19:53:15.999Z,96392.13
2023-03-06T19:57:39.155Z,96388.40
2023-03-06T20:02:09.876Z,96393.77
2023-03-06T20:06:12.944Z,96394.98
2023-03-06T20:10:44.056Z,96395.20
2023-03-06T20:15:03.944Z,96395.18
2023-03-06T20:19:27.585Z,96395.52
2023-03-06T20:23:46.899Z,96405.41
2023-03-06T20:39:19.722Z,96399.31
2023-03-06T20:43:58.205Z,96398.77
2023-03-06T20:48:22.558Z,96397.52
2023-03-06T20:52:48.932Z,96393.63
2023-03-06T20:57:12.532Z,96392.66
2023-03-06T21:01:35.404Z,96389.48
2023-03-06T21:06:17.972Z,96389.13
2023-03-06T21:13:53.245Z,96388.98
2023-03-06T21:18:37.017Z,96384.29
2023-03-06T21:23:08.929Z,96386.77
2023-03-06T21:27:40.643Z,96385.16
2023-03-06T21:32:07.652Z,96383.67
2023-03-06T21:36:51.416Z,96379.62
2023-03-06T21:41:35.628Z,96380.73
2023-03-06T21:46:15.266Z,96376.90
2023-03-06T21:50:59.396Z,96382.91
2023-03-06T21:55:43.200Z,96380.63
2023-03-06T22:11:49.285Z,96368.09
2023-03-06T22:16:11.987Z,96366.92
2023-03-06T22:20:36.720Z,96368.26
2023-03-06T22:25:06.725Z,96370.86
2023-03-06T22:29:29.194Z,96369.00
2023-03-06T22:33:53.433Z,96368.73
2023-03-06T22:38:05.790Z,96366.01
2023-03-06T22:42:28.826Z,96364.02
2023-03-06T22:46:53.598Z,96361.45
2023-03-06T22:51:36.131Z,96359.80
2023-03-06T22:55:58.755Z,96363.04
2023-03-06T23:00:21.947Z,96360.13
2023-03-06T23:04:46.313Z,96361.30
2023-03-06T23:14:06.892Z,96362.77
2023-03-06T23:18:16.183Z,96361.09
2023-03-06T23:22:59.966Z,96359.54
2023-03-06T23:27:43.699Z,96358.21
2023-03-06T23:32:27.449Z,96359.68
2023-03-06T23:36:54.348Z,96359.25
2023-03-06T23:41:33.715Z,96359.75
2023-03-06T23:46:11.036Z,96364.97
2023-03-06T23:50:34.871Z,96364.84
2023-03-06T23:54:47.671Z,96364.96
2023-03-06T23:59:19.381Z,96366.94
